createdAt,value
2018-07-25T00:01:27.279Z,26.70
2018-07-25T00:03:56.845Z,26.60
2018-07-25T00:07:29.591Z,26.60
2018-07-25T00:09:59.301Z,26.50
2018-07-25T00:12:29.073Z,26.40
2018-07-25T00:14:58.719Z,26.40
2018-07-25T00:17:28.445Z,26.30
2018-07-25T00:19:58.117Z,26.30
2018-07-25T00:22:27.747Z,26.20
2018-07-25T00:24:57.383Z,26.20
2018-07-25T00:27:27.100Z,26.10
2018-07-25T00:29:56.693Z,26.10
2018-07-25T00:32:26.345Z,26.00
2018-07-25T00:34:56.037Z,26.00
2018-07-25T00:37:25.617Z,26.00
2018-07-25T00:39:55.173Z,25.90
2018-07-25T00:42:24.817Z,25.90
2018-07-25T00:44:54.425Z,25.90
2018-07-25T00:47:24.045Z,25.80
2018-07-25T00:49:53.743Z,25.80
2018-07-25T00:52:23.399Z,25.80
2018-07-25T00:54:52.999Z,25.80
2018-07-25T00:57:22.606Z,25.80
2018-07-25T00:59:52.166Z,25.80
2018-07-25T01:02:21.782Z,25.70
2018-07-25T01:04:51.412Z,25.70
2018-07-25T01:07:21.283Z,25.70
2018-07-25T01:09:50.881Z,25.70
2018-07-25T01:12:20.584Z,25.70
2018-07-25T01:14:50.154Z,25.60
2018-07-25T01:17:19.884Z,25.60
2018-07-25T01:19:49.509Z,25.60
2018-07-25T01:22:19.181Z,25.60
2018-07-25T01:24:48.803Z,25.60
2018-07-25T01:27:18.446Z,25.50
2018-07-25T01:29:48.074Z,25.60
2018-07-25T01:32:17.725Z,25.50
2018-07-25T01:34:47.373Z,25.50
2018-07-25T01:37:17.043Z,25.50
2018-07-25T01:39:46.697Z,25.50
2018-07-25T01:42:16.209Z,25.50
2018-07-25T01:44:45.862Z,25.50
2018-07-25T01:47:29.857Z,25.50
2018-07-25T01:49:59.525Z,25.50
2018-07-25T01:52:29.196Z,25.50
2018-07-25T01:54:58.788Z,25.40
2018-07-25T01:57:28.375Z,25.40
2018-07-25T01:59:58.036Z,25.40
2018-07-25T02:02:27.604Z,25.40
2018-07-25T02:04:57.214Z,25.40
2018-07-25T02:07:26.942Z,25.40
2018-07-25T02:09:56.699Z,25.40
2018-07-25T02:12:26.332Z,25.40
2018-07-25T02:14:56.057Z,25.40
2018-07-25T02:17:25.667Z,25.40
2018-07-25T02:19:55.310Z,25.30
2018-07-25T02:22:24.950Z,25.30
2018-07-25T02:24:54.505Z,25.30
2018-07-25T02:27:24.034Z,25.30
2018-07-25T02:29:53.663Z,25.30
2018-07-25T02:32:23.354Z,25.20
2018-07-25T02:34:53.050Z,25.20
2018-07-25T02:37:22.735Z,25.10
2018-07-25T02:39:52.289Z,25.10
2018-07-25T02:42:21.929Z,25.00
2018-07-25T02:44:51.409Z,25.00
2018-07-25T02:47:21.116Z,24.90
2018-07-25T02:49:50.831Z,24.90
2018-07-25T02:52:20.299Z,24.80
2018-07-25T02:54:49.801Z,24.80
2018-07-25T02:57:19.379Z,24.80
2018-07-25T02:59:49.015Z,24.70
2018-07-25T03:04:47.960Z,24.60
2018-07-25T03:07:17.494Z,24.60
2018-07-25T03:09:47.076Z,24.60
2018-07-25T03:12:16.670Z,24.50
2018-07-25T03:14:46.434Z,24.50
2018-07-25T03:17:15.934Z,24.50
2018-07-25T03:19:45.581Z,24.40
2018-07-25T03:22:15.212Z,24.30
2018-07-25T03:24:44.857Z,24.30
2018-07-25T03:27:14.469Z,24.20
2018-07-25T03:29:44.212Z,24.20
2018-07-25T03:32:13.771Z,24.20
2018-07-25T03:34:43.388Z,24.10
2018-07-25T03:37:13.046Z,24.10
2018-07-25T03:39:42.622Z,24.10
2018-07-25T03:42:12.230Z,24.10
2018-07-25T03:44:41.837Z,24.10
2018-07-25T03:47:11.781Z,24.00
2018-07-25T03:49:41.453Z,24.00
2018-07-25T03:52:11.089Z,23.90
2018-07-25T03:54:40.722Z,23.90
2018-07-25T03:57:10.415Z,23.90
2018-07-25T03:59:39.985Z,23.90
2018-07-25T04:02:09.754Z,23.90
2018-07-25T04:04:39.427Z,23.90
2018-07-25T04:07:09.042Z,23.80
2018-07-25T04:09:38.838Z,23.80
2018-07-25T04:12:08.658Z,23.80
2018-07-25T04:14:38.262Z,23.80
2018-07-25T04:17:07.889Z,23.80
2018-07-25T04:19:37.646Z,23.80
2018-07-25T04:22:07.361Z,23.80
2018-07-25T04:24:37.097Z,23.80
2018-07-25T04:27:06.644Z,23.70
2018-07-25T04:29:36.360Z,23.70
2018-07-25T04:32:05.953Z,23.70
2018-07-25T04:34:35.813Z,23.70
2018-07-25T04:37:05.413Z,23.70
2018-07-25T04:39:34.968Z,23.70
2018-07-25T04:42:04.530Z,23.70
2018-07-25T04:44:34.122Z,23.70
2018-07-25T04:47:03.701Z,23.70
2018-07-25T04:49:33.408Z,23.70
2018-07-25T04:52:03.023Z,23.70
2018-07-25T04:54:32.760Z,23.80
2018-07-25T04:57:02.393Z,23.80
2018-07-25T04:59:32.029Z,23.80
2018-07-25T05:02:01.699Z,23.90
2018-07-25T05:04:31.351Z,23.90
2018-07-25T05:07:01.320Z,24.00
2018-07-25T05:09:31.026Z,24.10
2018-07-25T05:12:00.962Z,24.10
2018-07-25T05:14:30.544Z,24.20
2018-07-25T05:17:00.044Z,24.30
2018-07-25T05:19:29.772Z,24.50
2018-07-25T05:21:59.410Z,24.70
2018-07-25T05:24:29.119Z,24.90
2018-07-25T05:26:58.794Z,25.00
2018-07-25T05:29:28.408Z,25.20
2018-07-25T05:31:58.126Z,25.40
2018-07-25T05:34:27.658Z,25.50
2018-07-25T05:36:57.337Z,25.60
2018-07-25T05:39:26.973Z,25.80
2018-07-25T05:41:56.706Z,25.90
2018-07-25T05:44:26.295Z,26.00
2018-07-25T05:46:55.869Z,26.00
2018-07-25T05:49:25.710Z,26.10
2018-07-25T05:51:55.293Z,26.10
2018-07-25T05:54:24.798Z,26.20
2018-07-25T05:56:54.334Z,26.30
2018-07-25T05:59:24.026Z,26.40
2018-07-25T06:01:53.601Z,26.40
2018-07-25T06:04:23.343Z,26.50
2018-07-25T06:06:52.997Z,26.60
2018-07-25T06:09:22.642Z,26.60
2018-07-25T06:11:52.207Z,26.80
2018-07-25T06:14:22.184Z,26.90
2018-07-25T06:16:51.736Z,26.90
2018-07-25T06:19:21.437Z,27.00
2018-07-25T06:21:51.025Z,27.00
2018-07-25T06:24:20.572Z,27.10
2018-07-25T06:26:50.181Z,27.10
2018-07-25T06:29:19.854Z,27.10
2018-07-25T06:34:18.801Z,27.20
2018-07-25T06:36:48.417Z,27.20
2018-07-25T06:39:18.050Z,27.30
2018-07-25T06:41:47.683Z,27.40
2018-07-25T06:44:17.354Z,27.60
2018-07-25T06:46:46.998Z,27.70
2018-07-25T06:49:16.713Z,27.90
2018-07-25T06:51:46.256Z,27.90
2018-07-25T06:54:15.877Z,28.00
2018-07-25T06:56:45.511Z,28.10
2018-07-25T06:59:15.121Z,28.30
2018-07-25T07:01:44.760Z,28.30
2018-07-25T07:04:14.337Z,28.40
2018-07-25T07:06:44.045Z,28.60
2018-07-25T07:09:13.476Z,28.70
2018-07-25T07:11:43.084Z,28.90
2018-07-25T07:14:12.485Z,29.00
2018-07-25T07:16:42.084Z,29.20
2018-07-25T07:19:11.765Z,29.30
2018-07-25T07:21:41.261Z,29.50
2018-07-25T07:24:10.758Z,29.70
2018-07-25T07:26:40.306Z,29.80
2018-07-25T07:29:09.952Z,29.90
2018-07-25T07:31:39.655Z,30.00
2018-07-25T07:34:09.216Z,30.10
2018-07-25T07:36:38.846Z,30.20
2018-07-25T07:39:12.273Z,30.30
2018-07-25T07:41:42.131Z,30.60
2018-07-25T07:44:11.843Z,30.70
2018-07-25T07:46:41.496Z,30.90
2018-07-25T07:49:11.112Z,31.00
2018-07-25T07:51:40.814Z,31.10
2018-07-25T07:54:10.471Z,31.30
2018-07-25T07:56:39.848Z,31.40
2018-07-25T07:59:09.550Z,31.60
2018-07-25T08:01:39.151Z,31.60
2018-07-25T08:04:08.679Z,31.70
2018-07-25T08:06:38.157Z,31.80
2018-07-25T08:09:11.758Z,31.90
2018-07-25T08:11:41.493Z,32.00
2018-07-25T08:14:11.200Z,32.00
2018-07-25T08:16:40.910Z,32.10
2018-07-25T08:19:11.314Z,32.10
2018-07-25T08:21:40.978Z,32.10
2018-07-25T08:24:10.588Z,32.20
2018-07-25T08:26:40.259Z,32.30
2018-07-25T08:29:09.942Z,32.30
2018-07-25T08:31:39.550Z,32.30
2018-07-25T08:34:09.210Z,32.40
2018-07-25T08:36:38.918Z,32.40
2018-07-25T08:39:10.486Z,32.50
2018-07-25T08:41:40.195Z,32.40
2018-07-25T08:44:09.693Z,32.50
2018-07-25T08:46:39.332Z,32.50
2018-07-25T08:49:08.907Z,32.50
2018-07-25T08:51:38.457Z,32.60
2018-07-25T08:54:08.074Z,32.60
2018-07-25T08:56:37.735Z,32.70
2018-07-25T08:59:07.380Z,32.80
2018-07-25T09:01:36.964Z,32.90
2018-07-25T09:04:06.677Z,33.00
2018-07-25T09:06:36.157Z,33.20
2018-07-25T09:09:09.683Z,33.40
2018-07-25T09:11:39.105Z,33.60
2018-07-25T09:14:08.580Z,33.80
2018-07-25T09:16:37.972Z,34.00
2018-07-25T09:19:07.692Z,34.30
2018-07-25T09:21:37.356Z,34.40
2018-07-25T09:24:07.055Z,34.60
2018-07-25T09:26:36.730Z,34.70
2018-07-25T09:29:06.359Z,34.90
2018-07-25T09:31:36.006Z,35.00
2018-07-25T09:34:05.643Z,35.10
2018-07-25T09:36:35.266Z,35.20
2018-07-25T09:39:08.068Z,35.20
2018-07-25T09:41:37.630Z,35.20
2018-07-25T09:44:07.255Z,35.20
2018-07-25T09:46:36.949Z,35.20
2018-07-25T09:49:06.921Z,35.30
2018-07-25T09:51:36.443Z,35.40
2018-07-25T09:54:06.012Z,35.50
2018-07-25T09:56:35.685Z,35.70
2018-07-25T09:59:05.233Z,35.80
2018-07-25T10:01:34.688Z,36.00
2018-07-25T10:04:04.193Z,36.10
2018-07-25T10:06:33.957Z,36.20
2018-07-25T10:09:03.814Z,36.30
2018-07-25T10:11:33.519Z,36.30
2018-07-25T10:14:03.183Z,36.20
2018-07-25T10:16:32.847Z,36.10
2018-07-25T10:19:02.508Z,36.00
2018-07-25T10:21:32.175Z,35.80
2018-07-25T10:24:01.878Z,35.80
2018-07-25T10:26:31.465Z,35.90
2018-07-25T10:29:00.927Z,36.00
2018-07-25T10:31:30.471Z,36.10
2018-07-25T10:34:00.128Z,36.30
2018-07-25T10:36:29.839Z,36.50
2018-07-25T10:38:59.610Z,36.60
2018-07-25T10:41:29.101Z,36.80
2018-07-25T10:43:58.679Z,36.90
2018-07-25T10:46:28.301Z,37.00
2018-07-25T10:48:58.013Z,36.90
2018-07-25T10:51:27.690Z,37.00
2018-07-25T10:53:57.564Z,37.00
2018-07-25T10:58:56.655Z,37.10
2018-07-25T11:01:27.098Z,37.10
2018-07-25T11:03:56.763Z,37.30
2018-07-25T11:06:26.366Z,37.40
2018-07-25T11:08:56.057Z,37.40
2018-07-25T11:11:28.399Z,37.40
2018-07-25T11:13:59.178Z,37.50
2018-07-25T11:16:28.953Z,37.50
2018-07-25T11:18:58.472Z,37.50
2018-07-25T11:23:57.333Z,37.60
2018-07-25T11:26:26.788Z,37.80
2018-07-25T11:28:56.538Z,37.90
2018-07-25T11:31:26.260Z,38.10
2018-07-25T11:33:55.902Z,38.30
2018-07-25T11:36:25.384Z,38.40
2018-07-25T11:38:55.126Z,38.50
2018-07-25T11:41:24.835Z,38.60
2018-07-25T11:43:54.536Z,38.70
2018-07-25T11:46:24.241Z,38.80
2018-07-25T11:48:53.955Z,38.90
2018-07-25T11:51:23.601Z,39.00
2018-07-25T11:53:53.241Z,38.90
2018-07-25T11:56:22.879Z,39.10
2018-07-25T11:58:52.505Z,39.20
2018-07-25T12:01:22.270Z,39.30
2018-07-25T12:03:51.628Z,39.40
2018-07-25T12:06:21.274Z,39.50
2018-07-25T12:08:50.951Z,39.60
2018-07-25T12:11:20.660Z,39.60
2018-07-25T12:13:50.329Z,39.70
2018-07-25T12:16:19.911Z,39.90
2018-07-25T12:18:49.398Z,39.90
2018-07-25T12:21:19.031Z,39.90
2018-07-25T12:23:48.670Z,39.90
2018-07-25T12:26:18.356Z,39.90
2018-07-25T12:28:47.962Z,39.80
2018-07-25T12:31:17.655Z,39.80
2018-07-25T12:33:47.368Z,39.70
2018-07-25T12:36:16.935Z,39.70
2018-07-25T12:38:46.495Z,39.70
2018-07-25T12:41:15.977Z,39.70
2018-07-25T12:43:45.463Z,39.60
2018-07-25T12:46:15.027Z,39.60
2018-07-25T12:48:44.573Z,39.60
2018-07-25T12:51:14.227Z,39.70
2018-07-25T12:53:43.929Z,39.80
2018-07-25T12:56:13.480Z,39.90
2018-07-25T12:58:43.032Z,40.00
2018-07-25T13:01:12.734Z,40.00
2018-07-25T13:03:42.375Z,40.20
2018-07-25T13:06:12.046Z,40.20
2018-07-25T13:08:41.717Z,40.20
2018-07-25T13:11:11.364Z,40.30
2018-07-25T13:13:40.945Z,40.30
2018-07-25T13:16:10.742Z,40.30
2018-07-25T13:18:40.691Z,40.30
2018-07-25T13:21:10.443Z,40.30
2018-07-25T13:23:40.024Z,40.30
2018-07-25T13:26:09.717Z,40.40
2018-07-25T13:28:39.354Z,40.60
2018-07-25T13:31:09.346Z,40.80
2018-07-25T13:33:39.062Z,41.00
2018-07-25T13:36:08.658Z,41.10
2018-07-25T13:38:38.334Z,41.30
2018-07-25T13:41:08.055Z,41.20
2018-07-25T13:43:37.842Z,41.20
2018-07-25T13:46:07.599Z,41.20
2018-07-25T13:48:37.173Z,41.10
2018-07-25T13:51:07.149Z,41.10
2018-07-25T13:53:36.819Z,41.10
2018-07-25T13:56:06.993Z,41.00
2018-07-25T13:58:36.609Z,41.10
2018-07-25T14:01:06.261Z,41.10
2018-07-25T14:03:35.962Z,41.10
2018-07-25T14:06:05.639Z,41.20
2018-07-25T14:08:35.329Z,40.90
2018-07-25T14:11:05.043Z,40.70
2018-07-25T14:13:34.987Z,40.40
2018-07-25T14:16:04.611Z,40.10
2018-07-25T14:18:34.403Z,39.70
2018-07-25T14:21:04.059Z,39.40
2018-07-25T14:23:33.797Z,39.20
2018-07-25T14:26:03.342Z,39.10
2018-07-25T14:28:33.073Z,39.20
2018-07-25T14:31:02.864Z,39.30
2018-07-25T14:33:32.722Z,39.40
2018-07-25T14:36:02.450Z,39.50
2018-07-25T14:38:32.294Z,39.60
2018-07-25T14:41:01.982Z,39.70
2018-07-25T14:43:31.626Z,39.70
2018-07-25T14:46:01.331Z,39.90
2018-07-25T14:48:30.982Z,40.10
2018-07-25T14:51:00.836Z,40.20
2018-07-25T14:53:30.458Z,40.40
2018-07-25T14:56:00.193Z,40.60
2018-07-25T14:58:29.938Z,40.80
2018-07-25T15:00:59.506Z,40.80
2018-07-25T15:03:29.544Z,40.90
2018-07-25T15:05:59.337Z,40.90
2018-07-25T15:08:28.919Z,40.90
2018-07-25T15:10:58.501Z,41.00
2018-07-25T15:13:28.273Z,40.90
2018-07-25T15:15:57.915Z,41.00
2018-07-25T15:18:27.605Z,40.90
2018-07-25T15:20:57.241Z,40.80
2018-07-25T15:24:03.224Z,40.70
2018-07-25T15:26:32.838Z,40.50
2018-07-25T15:29:02.931Z,40.20
2018-07-25T15:31:32.751Z,39.90
2018-07-25T15:34:02.468Z,39.60
2018-07-25T15:36:41.262Z,39.20
2018-07-25T15:39:24.549Z,39.00
2018-07-25T15:44:25.124Z,38.50
2018-07-25T15:46:54.838Z,38.40
2018-07-25T15:49:24.367Z,38.10
2018-07-25T15:51:53.995Z,37.90
2018-07-25T15:54:23.508Z,37.70
2018-07-25T15:56:52.980Z,37.60
2018-07-25T15:59:22.592Z,37.50
2018-07-25T16:01:52.448Z,37.30
2018-07-25T16:04:22.164Z,37.30
2018-07-25T16:06:51.823Z,37.20
2018-07-25T16:09:21.348Z,37.10
2018-07-25T16:11:51.060Z,37.20
2018-07-25T16:14:20.686Z,37.30
2018-07-25T16:16:50.620Z,37.40
2018-07-25T16:19:20.246Z,37.60
2018-07-25T16:21:50.018Z,37.80
2018-07-25T16:24:19.733Z,37.90
2018-07-25T16:26:49.322Z,38.10
2018-07-25T16:29:19.026Z,38.30
2018-07-25T16:31:48.848Z,38.50
2018-07-25T16:34:18.597Z,38.50
2018-07-25T16:36:48.176Z,38.60
2018-07-25T16:39:19.053Z,38.60
2018-07-25T16:41:48.649Z,38.60
2018-07-25T16:44:18.516Z,38.60
2018-07-25T16:46:48.155Z,38.60
2018-07-25T16:49:17.888Z,38.50
2018-07-25T16:51:47.626Z,38.30
2018-07-25T16:54:17.329Z,38.20
2018-07-25T16:56:46.833Z,38.10
2018-07-25T16:59:16.364Z,38.00
2018-07-25T17:01:45.933Z,37.70
2018-07-25T17:04:15.454Z,37.50
2018-07-25T17:07:48.122Z,37.40
2018-07-25T17:10:17.942Z,37.10
2018-07-25T17:12:47.602Z,36.90
2018-07-25T17:15:17.358Z,36.70
2018-07-25T17:17:46.989Z,36.60
2018-07-25T17:20:16.788Z,36.40
2018-07-25T17:22:46.500Z,36.20
2018-07-25T17:25:16.065Z,36.20
2018-07-25T17:27:45.586Z,36.00
2018-07-25T17:30:15.010Z,35.90
2018-07-25T17:32:44.541Z,35.80
2018-07-25T17:35:14.099Z,35.80
2018-07-25T17:37:43.593Z,35.60
2018-07-25T17:40:13.013Z,35.60
2018-07-25T17:42:42.509Z,35.50
2018-07-25T17:45:12.590Z,35.50
2018-07-25T17:47:43.005Z,35.40
2018-07-25T17:50:12.785Z,35.30
2018-07-25T17:52:42.554Z,35.30
2018-07-25T17:55:12.121Z,35.30
2018-07-25T17:57:41.748Z,35.20
2018-07-25T18:00:12.130Z,35.20
2018-07-25T18:02:41.823Z,35.20
2018-07-25T18:07:41.066Z,35.20
2018-07-25T18:10:10.592Z,35.20
2018-07-25T18:12:40.122Z,35.20
2018-07-25T18:15:10.674Z,35.30
2018-07-25T18:17:40.370Z,35.30
2018-07-25T18:20:10.264Z,35.20
2018-07-25T18:22:40.196Z,35.10
2018-07-25T18:25:09.830Z,35.10
2018-07-25T18:27:39.471Z,35.10
2018-07-25T18:30:09.101Z,35.10
2018-07-25T18:32:38.749Z,35.00
2018-07-25T18:35:08.466Z,35.00
2018-07-25T18:37:38.458Z,34.90
2018-07-25T18:40:08.292Z,34.90
2018-07-25T18:42:37.857Z,34.80
2018-07-25T18:47:37.335Z,34.70
2018-07-25T18:50:09.417Z,34.60
2018-07-25T18:52:39.333Z,34.50
2018-07-25T18:55:09.365Z,34.50
2018-07-25T18:57:39.027Z,34.40
2018-07-25T19:00:08.943Z,34.30
2018-07-25T19:02:38.597Z,34.20
2018-07-25T19:05:08.148Z,34.10
2018-07-25T19:07:37.786Z,34.00
2018-07-25T19:10:07.901Z,33.90
2018-07-25T19:12:37.615Z,33.80
2018-07-25T19:15:12.324Z,33.70
2018-07-25T19:17:42.040Z,33.50
2018-07-25T19:20:11.851Z,33.40
2018-07-25T19:22:41.588Z,33.40
2018-07-25T19:25:11.344Z,33.30
2018-07-25T19:27:41.121Z,33.10
2018-07-25T19:30:10.773Z,33.10
2018-07-25T19:32:40.313Z,33.00
2018-07-25T19:35:09.887Z,32.90
2018-07-25T19:37:39.628Z,32.80
2018-07-25T19:40:09.514Z,32.80
2018-07-25T19:42:39.551Z,32.70
2018-07-25T19:45:09.203Z,32.60
2018-07-25T19:47:38.947Z,32.60
2018-07-25T19:50:08.675Z,32.50
2018-07-25T19:52:38.341Z,32.40
2018-07-25T19:55:08.231Z,32.30
2018-07-25T19:57:38.173Z,32.20
2018-07-25T20:00:07.907Z,32.10
2018-07-25T20:02:37.506Z,32.00
2018-07-25T20:05:08.180Z,31.80
2018-07-25T20:07:37.820Z,31.60
2018-07-25T20:10:07.843Z,31.50
2018-07-25T20:12:37.910Z,31.40
2018-07-25T20:15:12.978Z,31.30
2018-07-25T20:17:43.052Z,31.20
2018-07-25T20:20:12.981Z,31.10
2018-07-25T20:22:42.924Z,30.90
2018-07-25T20:25:12.819Z,30.90
2018-07-25T20:27:42.468Z,30.80
2018-07-25T20:30:12.087Z,30.60
2018-07-25T20:32:41.939Z,30.60
2018-07-25T20:35:11.895Z,30.50
2018-07-25T20:37:41.588Z,30.40
2018-07-25T20:40:11.181Z,30.30
2018-07-25T20:42:41.084Z,30.20
2018-07-25T20:45:11.033Z,30.10
2018-07-25T20:47:40.942Z,30.10
2018-07-25T20:50:10.726Z,30.00
2018-07-25T20:52:40.453Z,29.90
2018-07-25T20:55:10.338Z,29.90
2018-07-25T20:57:40.234Z,29.80
2018-07-25T21:00:09.816Z,29.70
2018-07-25T21:02:39.615Z,29.70
2018-07-25T21:05:09.425Z,29.60
2018-07-25T21:07:39.690Z,29.60
2018-07-25T21:10:09.376Z,29.50
2018-07-25T21:12:39.018Z,29.50
2018-07-25T21:15:08.700Z,29.40
2018-07-25T21:17:38.274Z,29.30
2018-07-25T21:20:07.907Z,29.30
2018-07-25T21:22:37.530Z,29.20
2018-07-25T21:25:07.306Z,29.10
2018-07-25T21:27:36.975Z,29.10
2018-07-25T21:30:06.727Z,29.10
2018-07-25T21:32:36.424Z,29.00
2018-07-25T21:35:06.181Z,29.00
2018-07-25T21:37:35.810Z,28.90
2018-07-25T21:40:05.445Z,28.90
2018-07-25T21:42:35.217Z,28.80
2018-07-25T21:45:05.019Z,28.80
2018-07-25T21:47:34.748Z,28.70
2018-07-25T21:50:04.676Z,28.70
2018-07-25T21:52:34.349Z,28.60
2018-07-25T21:55:03.983Z,28.60
2018-07-25T21:57:33.631Z,28.50
2018-07-25T22:00:03.297Z,28.50
2018-07-25T22:02:32.939Z,28.50
2018-07-25T22:05:02.518Z,28.40
2018-07-25T22:07:32.212Z,28.40
2018-07-25T22:10:01.864Z,28.30
2018-07-25T22:12:32.099Z,28.30
2018-07-25T22:15:01.779Z,28.30
2018-07-25T22:17:32.471Z,28.20
2018-07-25T22:20:02.149Z,28.20
2018-07-25T22:22:31.824Z,28.10
2018-07-25T22:25:01.501Z,28.10
2018-07-25T22:27:31.146Z,28.10
2018-07-25T22:30:00.680Z,28.00
2018-07-25T22:32:31.425Z,28.00
2018-07-25T22:35:00.968Z,28.00
2018-07-25T22:37:30.386Z,27.90
2018-07-25T22:39:59.653Z,27.80
2018-07-25T22:42:28.910Z,27.80
2018-07-25T22:44:58.155Z,27.70
2018-07-25T22:47:27.479Z,27.70
2018-07-25T22:49:56.693Z,27.60
2018-07-25T22:52:25.933Z,27.60
2018-07-25T22:54:56.055Z,27.50
2018-07-25T22:57:25.317Z,27.40
2018-07-25T22:59:54.564Z,27.40
2018-07-25T23:02:23.885Z,27.40
2018-07-25T23:04:53.137Z,27.30
2018-07-25T23:07:22.425Z,27.30
2018-07-25T23:09:51.650Z,27.20
2018-07-25T23:12:20.898Z,27.20
2018-07-25T23:14:50.186Z,27.20
2018-07-25T23:17:19.478Z,27.10
2018-07-25T23:19:48.782Z,27.10
2018-07-25T23:22:18.010Z,27.00
2018-07-25T23:24:47.320Z,27.00
2018-07-25T23:27:16.565Z,26.90
2018-07-25T23:29:45.857Z,26.90
2018-07-25T23:32:15.085Z,26.90
2018-07-25T23:34:45.142Z,26.90
2018-07-25T23:37:14.471Z,26.80
2018-07-25T23:39:43.702Z,26.80
2018-07-25T23:42:12.934Z,26.80
2018-07-25T23:44:42.212Z,26.70
2018-07-25T23:47:11.544Z,26.70
2018-07-25T23:49:40.789Z,26.70
2018-07-25T23:52:10.032Z,26.60
2018-07-25T23:54:39.259Z,26.60
2018-07-25T23:57:08.551Z,26.60
2018-07-25T23:59:37.797Z,26.60
